Time;durP1;ratioP1;P1;durP2;ratioP2;P2;SDS_P1;SDS_P2;PMS_P1;PMS_P2;Temp;Humidity;BMP_temperature;BMP_pressure;BME280_temperature;BME280_humidity;BME280_pressure;Samples;Min_cycle;Max_cycle;Signal;HPM_P1;HPM_P2
2023/12/28 00:02:16;;;;;;;8.43;4.82;;;4.50;99.90;;;;;;5018345;28;20041;-51
2023/12/28 00:04:43;;;;;;;8.18;4.70;;;4.60;99.90;;;;;;5018142;28;20141;-48
2023/12/28 00:07:10;;;;;;;8.75;5.35;;;4.60;99.90;;;;;;5014419;28;20495;-49
2023/12/28 00:09:37;;;;;;;8.20;4.60;;;4.60;99.90;;;;;;5020519;28;20462;-52
2023/12/28 00:12:05;;;;;;;10.40;5.00;;;4.60;99.90;;;;;;5018055;28;20034;-50
2023/12/28 00:14:31;;;;;;;7.78;4.57;;;4.60;99.90;;;;;;5022518;28;20450;-50
2023/12/28 00:16:58;;;;;;;9.18;4.72;;;4.60;99.90;;;;;;5020547;28;20096;-52
2023/12/28 00:19:25;;;;;;;8.57;4.65;;;4.60;99.90;;;;;;5016674;28;20562;-52
2023/12/28 00:21:52;;;;;;;7.13;4.65;;;4.60;99.90;;;;;;5018721;28;20052;-54
2023/12/28 00:24:20;;;;;;;7.47;4.70;;;4.50;99.90;;;;;;5018600;28;20141;-55
2023/12/28 00:26:48;;;;;;;11.18;4.80;;;4.50;99.90;;;;;;5017331;28;20466;-48
2023/12/28 00:29:15;;;;;;;7.32;4.72;;;4.50;99.90;;;;;;5015454;28;20086;-51
2023/12/28 00:31:42;;;;;;;9.15;4.80;;;4.50;99.90;;;;;;5017092;28;20414;-51
2023/12/28 00:34:09;;;;;;;8.10;5.32;;;4.50;99.90;;;;;;5014895;28;20255;-51
2023/12/28 00:36:36;;;;;;;8.15;5.30;;;4.40;99.90;;;;;;5031819;28;20419;-54
2023/12/28 00:39:03;;;;;;;8.88;4.75;;;4.40;99.90;;;;;;5015788;28;20053;-53
2023/12/28 00:41:30;;;;;;;7.72;4.93;;;4.40;99.90;;;;;;5011980;28;20125;-51
2023/12/28 00:43:57;;;;;;;7.88;4.50;;;4.40;99.90;;;;;;5013350;28;20053;-53
2023/12/28 00:46:24;;;;;;;8.95;4.72;;;4.40;99.90;;;;;;5016479;28;20042;-49
2023/12/28 00:48:51;;;;;;;7.63;4.10;;;4.40;99.90;;;;;;5019088;28;20479;-48
2023/12/28 00:51:20;;;;;;;6.63;3.95;;;4.40;99.90;;;;;;5015161;28;20049;-51
2023/12/28 00:53:48;;;;;;;6.78;4.30;;;4.50;99.90;;;;;;5040790;28;20046;-50
2023/12/28 00:56:16;;;;;;;9.25;4.45;;;4.50;99.90;;;;;;5017996;28;20418;-50
2023/12/28 00:58:43;;;;;;;7.47;4.38;;;4.50;99.90;;;;;;5018561;28;20125;-50
2023/12/28 01:01:10;;;;;;;8.73;4.40;;;4.60;99.90;;;;;;5016781;28;20167;-46
2023/12/28 01:03:39;;;;;;;7.57;4.18;;;4.60;99.90;;;;;;5038365;28;20044;-52
2023/12/28 01:06:07;;;;;;;6.75;4.25;;;4.50;99.90;;;;;;5015419;28;20060;-47
2023/12/28 01:08:34;;;;;;;6.82;3.97;;;4.50;99.90;;;;;;5015221;28;20053;-51
2023/12/28 01:11:04;;;;;;;8.15;4.28;;;4.40;99.90;;;;;;5017429;28;20045;-50
2023/12/28 01:13:31;;;;;;;7.55;4.43;;;4.50;99.90;;;;;;5015747;28;20048;-49
2023/12/28 01:15:58;;;;;;;7.10;4.25;;;4.40;99.90;;;;;;5018556;28;20430;-53
2023/12/28 01:18:25;;;;;;;8.15;4.95;;;4.40;99.90;;;;;;5010466;28;20065;-49
2023/12/28 01:20:53;;;;;;;7.68;4.78;;;4.30;99.90;;;;;;5018073;28;20541;-51
2023/12/28 01:23:20;;;;;;;7.50;4.68;;;4.30;99.90;;;;;;5015390;28;20474;-51
2023/12/28 01:25:47;;;;;;;7.25;4.53;;;4.20;99.90;;;;;;5040564;28;20494;-49
2023/12/28 01:28:14;;;;;;;8.10;4.40;;;4.40;99.90;;;;;;5015643;28;20056;-49
2023/12/28 01:30:41;;;;;;;6.70;4.57;;;4.40;99.90;;;;;;5037373;28;20060;-52
2023/12/28 01:33:08;;;;;;;6.45;4.05;;;4.40;99.90;;;;;;5012264;28;20042;-49
2023/12/28 01:35:36;;;;;;;7.07;4.57;;;4.30;99.90;;;;;;5000786;28;20052;-52
2023/12/28 01:38:03;;;;;;;7.35;4.50;;;4.30;99.90;;;;;;5013758;28;20076;-47
2023/12/28 01:40:30;;;;;;;6.40;4.28;;;4.30;99.90;;;;;;5015885;28;20068;-49
2023/12/28 01:42:58;;;;;;;7.70;4.50;;;4.30;99.90;;;;;;5014912;28;20525;-48
2023/12/28 01:45:25;;;;;;;6.82;4.13;;;4.30;99.90;;;;;;5018370;28;20081;-50
2023/12/28 01:47:57;;;;;;;6.97;4.40;;;4.30;99.90;;;;;;4997820;28;20538;-49
2023/12/28 01:50:27;;;;;;;6.57;4.22;;;4.30;99.90;;;;;;5010341;28;20042;-52
2023/12/28 01:52:55;;;;;;;7.22;4.07;;;4.30;99.90;;;;;;5014853;28;20049;-50
2023/12/28 01:55:23;;;;;;;7.22;3.95;;;4.30;99.90;;;;;;5013114;28;20054;-46
2023/12/28 01:57:50;;;;;;;7.07;4.22;;;4.30;99.90;;;;;;5014718;28;20096;-49
2023/12/28 02:00:18;;;;;;;6.75;4.18;;;4.40;99.90;;;;;;5011119;28;20058;-47
2023/12/28 02:02:45;;;;;;;8.57;5.05;;;4.40;99.90;;;;;;5016658;28;20498;-49
2023/12/28 02:05:12;;;;;;;7.50;4.45;;;4.50;99.90;;;;;;5007311;28;20056;-49
2023/12/28 02:07:40;;;;;;;8.45;4.72;;;4.50;99.90;;;;;;5009340;28;20046;-47
2023/12/28 02:10:07;;;;;;;7.82;4.90;;;4.60;99.90;;;;;;5016040;28;20419;-52
2023/12/28 02:12:34;;;;;;;7.97;4.53;;;4.70;99.90;;;;;;5006059;28;20113;-53
2023/12/28 02:15:02;;;;;;;6.57;4.40;;;4.80;99.90;;;;;;5014156;28;20046;-52
2023/12/28 02:17:48;;;;;;;8.57;3.97;;;4.90;99.90;;;;;;5010463;28;20074;-50
2023/12/28 02:20:16;;;;;;;6.63;4.68;;;4.90;99.90;;;;;;5013118;28;20440;-52
2023/12/28 02:22:43;;;;;;;8.68;5.07;;;5.00;99.90;;;;;;5017862;28;20519;-51
2023/12/28 02:25:11;;;;;;;7.32;4.80;;;5.00;99.90;;;;;;5013293;28;20073;-49
2023/12/28 02:27:41;;;;;;;9.15;5.15;;;5.00;99.90;;;;;;5010762;28;20483;-54
2023/12/28 02:30:11;;;;;;;9.43;4.95;;;5.10;99.90;;;;;;5009478;28;20037;-52
2023/12/28 02:32:58;;;;;;;7.72;4.90;;;5.00;99.90;;;;;;5020766;28;20141;-54
2023/12/28 02:35:39;;;;;;;7.75;5.07;;;5.00;99.90;;;;;;5013229;28;20349;-53
2023/12/28 02:38:10;;;;;;;8.10;4.97;;;5.00;99.90;;;;;;5012740;28;20479;-50
2023/12/28 02:40:39;;;;;;;6.93;4.72;;;5.00;99.90;;;;;;5013362;28;20054;-48
2023/12/28 02:43:07;;;;;;;9.77;4.80;;;5.00;99.90;;;;;;5012526;28;20049;-48
2023/12/28 02:45:35;;;;;;;7.95;4.80;;;4.90;99.90;;;;;;5020475;28;20056;-48
2023/12/28 02:48:02;;;;;;;8.43;4.90;;;4.90;99.90;;;;;;5015528;28;20083;-53
2023/12/28 02:50:32;;;;;;;6.60;4.43;;;4.80;99.90;;;;;;5013594;28;20054;-48
2023/12/28 02:53:00;;;;;;;6.78;4.53;;;4.80;99.90;;;;;;5039530;28;20042;-50
2023/12/28 02:55:27;;;;;;;8.38;4.20;;;4.80;99.90;;;;;;5016334;28;20423;-48
2023/12/28 02:57:59;;;;;;;6.88;4.20;;;4.80;99.90;;;;;;5016692;28;20103;-54
2023/12/28 03:00:27;;;;;;;7.25;4.40;;;4.80;99.90;;;;;;5034751;28;20150;-50
2023/12/28 03:02:55;;;;;;;7.82;4.45;;;4.80;99.90;;;;;;5015251;28;20217;-49
2023/12/28 03:05:22;;;;;;;7.68;4.70;;;4.80;99.90;;;;;;5017983;28;20412;-51
2023/12/28 03:07:49;;;;;;;6.18;4.13;;;4.80;99.90;;;;;;5013495;28;20046;-50
2023/12/28 03:10:18;;;;;;;6.53;4.50;;;4.80;99.90;;;;;;5012084;28;20049;-49
2023/12/28 03:12:45;;;;;;;8.07;4.32;;;4.70;99.90;;;;;;5018041;28;20053;-48
2023/12/28 03:15:13;;;;;;;9.45;4.90;;;4.80;99.90;;;;;;5014535;28;20269;-50
2023/12/28 03:17:40;;;;;;;9.13;4.65;;;4.70;99.90;;;;;;5021100;28;20111;-52
2023/12/28 03:20:08;;;;;;;8.65;4.53;;;4.80;99.90;;;;;;5016459;28;20067;-52
2023/12/28 03:22:35;;;;;;;8.75;4.65;;;4.70;99.90;;;;;;5013417;28;20096;-50
2023/12/28 03:25:03;;;;;;;7.45;4.38;;;4.70;99.90;;;;;;5015773;28;20419;-53
2023/12/28 03:27:31;;;;;;;6.75;4.63;;;4.70;99.90;;;;;;5016746;28;20583;-48
2023/12/28 03:29:58;;;;;;;7.07;4.82;;;4.70;99.90;;;;;;5017102;28;20053;-50
2023/12/28 03:32:25;;;;;;;7.20;4.93;;;4.70;99.90;;;;;;5016665;28;20049;-49
2023/12/28 03:34:52;;;;;;;9.63;4.85;;;4.80;99.90;;;;;;5017418;28;20069;-51
2023/12/28 03:37:19;;;;;;;9.75;5.20;;;4.70;99.90;;;;;;5017204;28;20248;-50
2023/12/28 03:39:46;;;;;;;8.18;5.10;;;4.80;99.90;;;;;;5015545;28;20052;-54
2023/12/28 03:42:14;;;;;;;8.57;4.93;;;4.70;99.90;;;;;;5018094;28;20127;-48
2023/12/28 03:44:41;;;;;;;8.32;5.18;;;4.70;99.90;;;;;;5023797;28;20533;-49
2023/12/28 03:47:08;;;;;;;6.65;4.60;;;4.70;99.90;;;;;;5022191;28;20065;-51
2023/12/28 03:49:35;;;;;;;8.02;4.90;;;4.70;99.90;;;;;;5018288;28;20038;-50
2023/12/28 03:52:02;;;;;;;7.25;4.70;;;4.70;99.90;;;;;;4999208;28;20050;-51
2023/12/28 03:54:30;;;;;;;7.57;4.90;;;4.80;99.90;;;;;;5015034;28;20100;-47
2023/12/28 03:56:57;;;;;;;7.13;4.78;;;4.90;99.90;;;;;;5019244;28;20080;-49
2023/12/28 03:59:24;;;;;;;7.75;4.78;;;4.80;99.90;;;;;;5008433;28;20099;-50
2023/12/28 04:01:52;;;;;;;6.57;4.28;;;4.80;99.90;;;;;;5018972;28;20107;-45
2023/12/28 04:04:19;;;;;;;7.43;4.97;;;4.80;99.90;;;;;;5015084;28;20061;-51
2023/12/28 04:06:48;;;;;;;6.82;4.80;;;4.80;99.90;;;;;;5006407;28;20083;-47
2023/12/28 04:09:17;;;;;;;6.82;4.45;;;4.90;99.90;;;;;;5015283;28;20045;-50
2023/12/28 04:11:44;;;;;;;8.43;4.72;;;4.90;99.90;;;;;;5008661;28;20059;-50
2023/12/28 04:14:11;;;;;;;6.25;4.25;;;4.90;99.90;;;;;;5015327;28;20468;-51
2023/12/28 04:16:38;;;;;;;7.30;4.68;;;4.90;99.90;;;;;;5028077;28;20045;-54
2023/12/28 04:19:05;;;;;;;7.13;4.57;;;5.00;99.90;;;;;;5009681;28;20320;-49
2023/12/28 04:21:32;;;;;;;8.95;4.95;;;5.00;99.90;;;;;;5011989;28;20061;-49
2023/12/28 04:23:59;;;;;;;7.95;4.45;;;5.00;99.90;;;;;;5017967;28;20541;-53
2023/12/28 04:26:26;;;;;;;6.38;4.32;;;5.00;99.90;;;;;;5012568;28;20081;-56
2023/12/28 04:28:53;;;;;;;6.82;5.00;;;5.00;99.90;;;;;;5019299;28;20049;-51
2023/12/28 04:31:20;;;;;;;10.15;5.25;;;5.00;99.90;;;;;;5009650;28;20050;-49
2023/12/28 04:33:47;;;;;;;6.53;4.55;;;5.00;99.90;;;;;;5017371;28;20404;-48
2023/12/28 04:36:14;;;;;;;5.45;4.00;;;5.10;99.90;;;;;;5011775;28;20058;-50
2023/12/28 04:38:41;;;;;;;8.65;4.75;;;5.10;99.90;;;;;;5008464;28;20144;-51
2023/12/28 04:41:09;;;;;;;7.00;4.70;;;5.00;99.90;;;;;;5013398;28;20061;-50
2023/12/28 04:43:36;;;;;;;8.23;4.70;;;5.00;99.90;;;;;;5016690;28;20406;-50
2023/12/28 04:46:04;;;;;;;7.03;4.93;;;5.10;99.90;;;;;;5016376;28;20077;-51
2023/12/28 04:48:32;;;;;;;7.07;4.88;;;5.00;99.90;;;;;;5018140;28;20049;-49
2023/12/28 04:51:02;;;;;;;7.90;5.00;;;5.10;99.90;;;;;;5013842;28;20220;-50
2023/12/28 04:53:29;;;;;;;7.60;4.53;;;5.10;99.90;;;;;;5015978;28;20443;-50
2023/12/28 04:55:56;;;;;;;7.07;4.47;;;5.10;99.90;;;;;;5014402;28;20507;-52
2023/12/28 04:58:23;;;;;;;6.40;4.80;;;5.10;99.90;;;;;;5009289;28;20073;-48
2023/12/28 05:00:50;;;;;;;7.10;4.60;;;5.20;99.90;;;;;;5010247;28;20053;-54
2023/12/28 05:03:18;;;;;;;6.70;4.28;;;5.30;99.90;;;;;;5012543;28;20073;-49
2023/12/28 05:05:46;;;;;;;7.75;4.95;;;5.30;99.90;;;;;;5008935;28;20151;-52
2023/12/28 05:08:15;;;;;;;7.25;4.95;;;5.30;99.90;;;;;;5014974;28;20043;-49
2023/12/28 05:10:42;;;;;;;6.53;4.20;;;5.30;99.90;;;;;;5016836;28;20091;-51
2023/12/28 05:13:10;;;;;;;6.20;4.55;;;5.30;99.90;;;;;;5010949;28;20057;-46
2023/12/28 05:15:38;;;;;;;9.00;5.10;;;5.30;99.90;;;;;;5015405;28;20073;-48
2023/12/28 05:18:07;;;;;;;7.05;4.68;;;5.30;99.90;;;;;;5012578;28;20442;-51
2023/12/28 05:20:34;;;;;;;7.50;4.57;;;5.30;99.90;;;;;;5015513;28;20070;-51
2023/12/28 05:23:01;;;;;;;7.15;4.57;;;5.30;99.90;;;;;;5018235;28;20116;-51
2023/12/28 05:25:28;;;;;;;6.75;4.43;;;5.30;99.90;;;;;;5011792;28;20056;-51
2023/12/28 05:27:55;;;;;;;9.10;4.90;;;5.40;99.90;;;;;;5018306;28;20033;-51
2023/12/28 05:30:22;;;;;;;6.85;4.63;;;5.40;99.90;;;;;;5010818;28;20041;-48
2023/12/28 05:32:49;;;;;;;8.18;5.20;;;5.50;99.90;;;;;;5007840;28;20042;-51
2023/12/28 05:35:16;;;;;;;6.80;4.50;;;5.50;99.90;;;;;;5015354;28;20455;-49
2023/12/28 05:37:43;;;;;;;7.13;4.88;;;5.60;99.90;;;;;;5015960;28;20137;-50
2023/12/28 05:40:10;;;;;;;7.30;4.10;;;5.60;99.90;;;;;;5014372;28;20289;-51
2023/12/28 05:42:38;;;;;;;5.63;3.92;;;5.60;99.90;;;;;;5009871;28;20042;-51
2023/12/28 05:45:05;;;;;;;6.72;4.57;;;5.60;99.90;;;;;;5015850;28;20056;-49
2023/12/28 05:47:32;;;;;;;6.22;4.38;;;5.60;99.90;;;;;;5013140;28;20509;-52
2023/12/28 05:50:00;;;;;;;7.07;4.40;;;5.70;99.90;;;;;;5018642;28;20053;-52
2023/12/28 05:52:27;;;;;;;8.32;4.68;;;5.70;99.90;;;;;;5012194;28;20470;-52
2023/12/28 05:54:56;;;;;;;8.30;4.90;;;5.70;99.90;;;;;;5016731;28;20328;-50
2023/12/28 05:57:25;;;;;;;8.45;4.82;;;5.70;99.90;;;;;;5010372;28;20046;-53
2023/12/28 05:59:52;;;;;;;7.88;4.88;;;5.80;99.90;;;;;;5015482;28;20053;-49
2023/12/28 06:02:19;;;;;;;8.07;4.68;;;5.80;99.90;;;;;;5013543;28;20108;-49
2023/12/28 06:04:46;;;;;;;7.65;5.10;;;5.90;99.90;;;;;;5014542;28;20045;-50
2023/12/28 06:07:13;;;;;;;8.23;4.70;;;6.00;99.90;;;;;;5018305;28;20064;-48
2023/12/28 06:09:40;;;;;;;6.28;4.50;;;6.00;99.90;;;;;;5011625;28;20044;-46
2023/12/28 06:12:07;;;;;;;11.70;5.20;;;5.90;99.90;;;;;;5019236;28;20038;-49
2023/12/28 06:14:34;;;;;;;8.23;4.88;;;6.00;99.90;;;;;;5013664;28;20987;-50
2023/12/28 06:17:01;;;;;;;7.68;4.28;;;6.00;99.90;;;;;;5015265;28;20482;-52
2023/12/28 06:19:28;;;;;;;8.20;4.68;;;6.00;99.90;;;;;;5020096;28;20132;-50
2023/12/28 06:21:55;;;;;;;8.32;5.20;;;6.00;99.90;;;;;;5018117;28;20507;-53
2023/12/28 06:24:22;;;;;;;7.20;4.75;;;6.00;99.90;;;;;;5021809;28;20049;-53
2023/12/28 06:26:49;;;;;;;8.23;4.80;;;6.00;99.90;;;;;;5008661;28;20539;-51
2023/12/28 06:29:16;;;;;;;7.43;4.63;;;6.10;99.90;;;;;;5020056;28;20043;-53
2023/12/28 06:31:43;;;;;;;8.77;4.80;;;6.10;99.90;;;;;;5019685;28;20124;-53
2023/12/28 06:34:10;;;;;;;7.88;4.85;;;6.10;99.90;;;;;;5020332;28;20307;-53
2023/12/28 06:36:37;;;;;;;7.25;4.60;;;6.10;99.90;;;;;;5017992;28;20041;-51
2023/12/28 06:39:04;;;;;;;10.27;4.88;;;6.20;99.90;;;;;;5018842;28;20140;-50
2023/12/28 06:41:31;;;;;;;9.52;4.78;;;6.10;99.90;;;;;;5014259;28;20049;-55
2023/12/28 06:43:58;;;;;;;9.25;5.40;;;6.20;99.90;;;;;;5020489;28;20144;-49
2023/12/28 06:46:25;;;;;;;7.43;4.82;;;6.20;99.90;;;;;;5015254;28;20084;-48
2023/12/28 06:48:52;;;;;;;8.55;5.00;;;6.20;99.90;;;;;;5020098;28;20076;-51
2023/12/28 06:51:20;;;;;;;9.02;5.28;;;6.20;99.90;;;;;;5013551;28;20049;-51
2023/12/28 06:53:48;;;;;;;12.02;5.10;;;6.30;99.90;;;;;;5007307;28;20053;-49
2023/12/28 06:56:15;;;;;;;7.45;4.95;;;6.30;99.90;;;;;;5011105;28;20042;-47
2023/12/28 06:58:43;;;;;;;8.13;4.85;;;6.30;99.90;;;;;;5018468;28;20045;-50
2023/12/28 07:01:10;;;;;;;8.68;5.68;;;6.40;99.90;;;;;;5012676;28;20499;-48
2023/12/28 07:03:38;;;;;;;7.70;4.70;;;6.40;99.90;;;;;;5019446;28;20082;-51
2023/12/28 07:06:05;;;;;;;9.52;5.00;;;6.40;99.90;;;;;;5020944;28;20080;-50
2023/12/28 07:08:32;;;;;;;9.48;5.28;;;6.40;99.90;;;;;;5018542;28;20081;-47
2023/12/28 07:11:03;;;;;;;7.63;4.20;;;6.40;99.90;;;;;;5020147;28;20056;-50
2023/12/28 07:13:31;;;;;;;8.23;5.68;;;6.50;99.90;;;;;;5012911;28;20054;-52
2023/12/28 07:15:58;;;;;;;9.77;5.07;;;6.50;99.90;;;;;;5017288;28;20152;-51
2023/12/28 07:18:27;;;;;;;12.00;5.00;;;6.60;99.90;;;;;;5009208;28;20052;-56
2023/12/28 07:20:55;;;;;;;7.75;4.80;;;6.60;99.90;;;;;;5019988;28;20051;-49
2023/12/28 07:23:22;;;;;;;8.98;5.30;;;6.60;99.90;;;;;;5019171;28;20147;-51
2023/12/28 07:25:49;;;;;;;9.35;4.78;;;6.60;99.90;;;;;;5020284;28;20489;-51
2023/12/28 07:28:16;;;;;;;8.02;5.18;;;6.70;99.90;;;;;;5017926;28;20539;-49
2023/12/28 07:30:43;;;;;;;8.68;4.72;;;6.70;99.90;;;;;;5007051;28;20046;-51
2023/12/28 07:33:10;;;;;;;8.27;5.22;;;6.70;99.90;;;;;;5005327;28;20042;-51
2023/12/28 07:35:37;;;;;;;7.32;4.80;;;6.70;99.90;;;;;;5014058;28;20488;-54
2023/12/28 07:38:04;;;;;;;6.55;4.70;;;6.70;99.90;;;;;;5016054;28;20048;-54
2023/12/28 07:40:32;;;;;;;6.40;4.38;;;6.70;99.90;;;;;;5017087;28;20129;-49
2023/12/28 07:43:00;;;;;;;9.73;4.78;;;6.80;99.90;;;;;;5015360;28;20065;-51
2023/12/28 07:45:28;;;;;;;10.40;5.07;;;6.80;99.90;;;;;;5015940;28;20506;-52
2023/12/28 07:47:55;;;;;;;11.63;4.80;;;6.80;99.90;;;;;;5014731;28;20045;-53
2023/12/28 07:50:23;;;;;;;6.90;4.47;;;6.80;99.90;;;;;;5010312;28;20495;-54
2023/12/28 07:52:50;;;;;;;10.32;4.53;;;6.80;99.90;;;;;;5016057;28;20082;-52
2023/12/28 07:55:17;;;;;;;7.75;4.55;;;6.90;99.90;;;;;;5010542;28;20124;-53
2023/12/28 07:57:45;;;;;;;10.55;4.85;;;6.90;99.90;;;;;;5017760;28;20068;-51
2023/12/28 08:00:12;;;;;;;9.10;4.85;;;6.90;99.90;;;;;;5014137;28;20419;-52
2023/12/28 08:02:39;;;;;;;8.48;4.40;;;6.90;99.90;;;;;;5008283;28;20042;-52
2023/12/28 08:05:07;;;;;;;10.63;4.78;;;6.90;99.90;;;;;;5013804;28;20044;-52
2023/12/28 08:07:34;;;;;;;6.68;4.50;;;6.90;99.90;;;;;;5007617;28;20069;-49
2023/12/28 08:10:01;;;;;;;7.80;5.05;;;7.00;99.90;;;;;;5013959;28;20141;-47
2023/12/28 08:12:28;;;;;;;14.65;7.28;;;7.00;99.90;;;;;;5016027;28;20045;-50
2023/12/28 08:14:56;;;;;;;11.18;6.30;;;7.10;99.90;;;;;;5017293;28;20053;-49
2023/12/28 08:17:23;;;;;;;9.35;5.40;;;7.10;99.90;;;;;;5013596;28;20116;-51
2023/12/28 08:19:50;;;;;;;12.27;6.50;;;7.10;99.90;;;;;;5011374;28;20115;-46
2023/12/28 08:22:18;;;;;;;9.25;5.38;;;7.20;99.90;;;;;;5013458;28;20125;-48
2023/12/28 08:24:46;;;;;;;12.00;6.38;;;7.20;99.90;;;;;;5017632;28;20087;-51
2023/12/28 08:27:13;;;;;;;9.07;4.97;;;7.20;99.90;;;;;;5016427;28;20208;-49
2023/12/28 08:29:42;;;;;;;6.57;4.60;;;7.20;99.90;;;;;;5015013;28;20116;-52
2023/12/28 08:32:10;;;;;;;10.13;5.35;;;7.30;99.90;;;;;;5017714;28;20041;-50
2023/12/28 08:34:38;;;;;;;10.18;5.32;;;7.30;99.90;;;;;;5017136;28;20072;-52
2023/12/28 08:37:05;;;;;;;9.82;5.18;;;7.30;99.90;;;;;;5020138;28;20441;-52
2023/12/28 08:39:32;;;;;;;12.40;4.90;;;7.30;99.90;;;;;;5013196;28;20053;-53
2023/12/28 08:41:59;;;;;;;8.07;5.10;;;7.40;99.90;;;;;;5018881;28;20136;-51
2023/12/28 08:44:26;;;;;;;11.95;5.55;;;7.40;99.90;;;;;;5022619;28;20057;-49
2023/12/28 08:46:53;;;;;;;7.35;4.50;;;7.30;99.90;;;;;;5025923;28;20049;-50
2023/12/28 08:49:22;;;;;;;8.93;4.57;;;7.40;99.90;;;;;;5019205;28;20104;-50
2023/12/28 08:51:50;;;;;;;6.82;4.60;;;7.40;99.90;;;;;;5012426;28;20051;-51
2023/12/28 08:54:17;;;;;;;7.38;5.07;;;7.50;99.90;;;;;;5014825;28;20046;-55
2023/12/28 08:56:45;;;;;;;8.00;4.85;;;7.40;99.90;;;;;;5016194;28;20041;-52
2023/12/28 08:59:15;;;;;;;7.25;4.78;;;7.50;99.90;;;;;;5013681;28;20617;-53
2023/12/28 09:01:42;;;;;;;7.55;4.95;;;7.50;99.90;;;;;;5039956;28;20069;-53
2023/12/28 09:04:10;;;;;;;8.32;5.05;;;7.40;99.90;;;;;;5009335;28;20077;-55
2023/12/28 09:06:37;;;;;;;7.88;5.30;;;7.50;99.90;;;;;;5009108;28;20559;-50
2023/12/28 09:09:04;;;;;;;6.88;4.45;;;7.50;99.90;;;;;;5016097;28;20577;-53
2023/12/28 09:11:31;;;;;;;7.70;5.25;;;7.60;99.90;;;;;;5013133;28;20311;-52
2023/12/28 09:13:59;;;;;;;6.57;4.47;;;7.60;99.90;;;;;;5009649;28;20368;-51
2023/12/28 09:16:28;;;;;;;7.15;4.63;;;7.60;99.90;;;;;;5011748;28;20103;-53
2023/12/28 09:18:55;;;;;;;6.95;4.70;;;7.60;99.90;;;;;;5016689;28;20061;-54
2023/12/28 09:21:23;;;;;;;8.23;5.18;;;7.60;99.90;;;;;;5013892;28;20549;-55
2023/12/28 09:23:50;;;;;;;9.23;5.18;;;7.60;99.90;;;;;;5009399;28;20033;-48
2023/12/28 09:26:17;;;;;;;12.80;6.43;;;7.60;99.90;;;;;;5012884;28;20049;-53
2023/12/28 09:28:44;;;;;;;8.00;4.90;;;7.60;99.90;;;;;;5018550;28;20084;-50
2023/12/28 09:31:11;;;;;;;6.70;4.45;;;7.60;99.90;;;;;;5018217;28;20136;-52
2023/12/28 09:33:38;;;;;;;8.48;5.05;;;7.70;99.90;;;;;;5013559;28;20037;-46
2023/12/28 09:36:06;;;;;;;7.68;4.63;;;7.70;99.90;;;;;;5017925;28;20422;-54
2023/12/28 09:38:33;;;;;;;8.20;4.80;;;7.80;99.90;;;;;;5013213;28;20037;-54
2023/12/28 09:41:15;;;;;;;7.63;5.03;;;7.80;99.90;;;;;;5017031;28;20049;-47
2023/12/28 09:44:21;;;;;;;9.15;4.63;;;7.80;99.90;;;;;;5015359;28;20042;-50
2023/12/28 09:46:48;;;;;;;11.25;5.28;;;7.90;99.90;;;;;;5015683;28;20081;-54
2023/12/28 09:49:16;;;;;;;7.30;4.75;;;7.90;99.90;;;;;;5010525;28;20511;-52
2023/12/28 09:51:43;;;;;;;9.00;5.63;;;7.90;99.90;;;;;;5007151;28;20053;-51
2023/12/28 09:54:10;;;;;;;12.10;6.78;;;7.90;99.90;;;;;;5011263;28;20030;-48
2023/12/28 09:56:37;;;;;;;10.55;5.57;;;8.00;99.90;;;;;;5016531;28;20064;-51
2023/12/28 09:59:05;;;;;;;8.88;4.60;;;8.00;99.90;;;;;;5013331;28;20081;-53
2023/12/28 10:01:34;;;;;;;8.13;4.90;;;8.10;99.90;;;;;;5010243;28;20510;-54
2023/12/28 10:04:03;;;;;;;12.20;5.65;;;8.10;99.90;;;;;;5011902;28;20394;-54
2023/12/28 10:06:30;;;;;;;8.43;5.25;;;8.20;99.90;;;;;;5011321;28;20519;-51
2023/12/28 10:08:57;;;;;;;7.78;5.03;;;8.20;99.90;;;;;;5016715;28;20049;-52
2023/12/28 10:11:26;;;;;;;17.77;9.82;;;8.20;99.90;;;;;;5011172;28;20050;-45
2023/12/28 10:13:53;;;;;;;9.07;5.30;;;8.30;99.90;;;;;;5016134;28;20049;-55
2023/12/28 10:16:20;;;;;;;10.52;5.40;;;8.40;99.90;;;;;;5009984;28;20072;-51
2023/12/28 10:18:47;;;;;;;11.93;5.82;;;8.40;99.90;;;;;;5006161;28;20125;-48
2023/12/28 10:21:15;;;;;;;10.15;5.57;;;8.50;99.90;;;;;;5006629;28;20054;-50
2023/12/28 10:23:42;;;;;;;9.43;5.63;;;8.50;99.90;;;;;;5016591;28;20376;-55
2023/12/28 10:26:10;;;;;;;11.43;6.07;;;8.60;99.90;;;;;;5013175;28;20490;-51
2023/12/28 10:28:38;;;;;;;9.98;5.68;;;8.60;99.90;;;;;;5015726;28;20111;-50
2023/12/28 10:31:05;;;;;;;8.02;5.38;;;8.70;99.90;;;;;;5012514;28;20208;-54
2023/12/28 10:33:39;;;;;;;11.02;6.22;;;8.80;99.90;;;;;;5013032;28;20497;-52
2023/12/28 10:36:08;;;;;;;8.98;5.43;;;8.80;99.90;;;;;;5015854;28;20097;-50
2023/12/28 10:38:37;;;;;;;11.95;6.65;;;8.90;99.90;;;;;;5012375;28;20416;-53
2023/12/28 10:41:07;;;;;;;12.80;5.78;;;9.00;99.90;;;;;;5014389;28;20105;-51
2023/12/28 10:44:02;;;;;;;8.95;5.28;;;9.00;99.90;;;;;;5009986;28;20061;-50
2023/12/28 10:46:41;;;;;;;10.93;5.68;;;9.00;99.90;;;;;;5010424;28;20054;-54
2023/12/28 10:49:15;;;;;;;10.13;5.65;;;9.00;99.90;;;;;;5013443;28;20041;-53
2023/12/28 10:51:45;;;;;;;11.77;6.25;;;9.10;99.90;;;;;;5014067;28;20077;-53
2023/12/28 10:54:40;;;;;;;11.00;6.53;;;9.20;99.90;;;;;;5016797;28;20072;-53
2023/12/28 10:57:27;;;;;;;9.40;5.85;;;9.30;99.90;;;;;;5016265;28;20456;-54
2023/12/28 11:00:00;;;;;;;12.30;6.53;;;9.30;99.90;;;;;;5011833;28;20045;-50
2023/12/28 11:02:34;;;;;;;10.30;6.18;;;9.40;99.90;;;;;;5014868;28;20072;-49
2023/12/28 11:05:03;;;;;;;10.48;6.00;;;9.40;99.90;;;;;;5015906;28;20293;-49
2023/12/28 11:07:32;;;;;;;12.05;5.75;;;9.40;99.90;;;;;;5016506;28;20123;-52
2023/12/28 11:10:04;;;;;;;11.00;5.97;;;9.40;99.90;;;;;;5013518;28;20038;-50
2023/12/28 11:12:32;;;;;;;8.75;5.65;;;9.40;99.90;;;;;;5015456;28;20566;-50
2023/12/28 11:15:01;;;;;;;9.45;5.60;;;9.30;99.90;;;;;;5020378;28;20046;-53
2023/12/28 11:17:30;;;;;;;9.90;6.18;;;9.30;99.90;;;;;;5013706;28;20053;-51
2023/12/28 11:19:58;;;;;;;8.70;5.10;;;9.40;99.90;;;;;;5017837;28;20060;-52
2023/12/28 11:22:25;;;;;;;9.93;5.75;;;9.40;99.90;;;;;;5017046;28;20224;-50
2023/12/28 11:24:53;;;;;;;10.82;4.97;;;9.40;99.90;;;;;;5005733;28;20117;-48
2023/12/28 11:27:20;;;;;;;8.38;4.93;;;9.40;99.90;;;;;;5018047;28;20481;-50
2023/12/28 11:29:49;;;;;;;8.05;5.18;;;9.30;99.90;;;;;;5010870;28;20046;-53
2023/12/28 11:32:16;;;;;;;7.93;4.60;;;9.40;99.90;;;;;;5017966;28;20033;-50
2023/12/28 11:34:43;;;;;;;7.05;4.85;;;9.50;99.90;;;;;;5011935;28;20641;-50
2023/12/28 11:37:18;;;;;;;7.00;4.72;;;9.50;99.90;;;;;;5018274;28;20052;-46
2023/12/28 11:39:48;;;;;;;8.90;4.72;;;9.50;99.90;;;;;;5016258;28;20061;-51
2023/12/28 11:42:22;;;;;;;6.57;4.32;;;9.40;99.90;;;;;;5014536;28;20037;-49
2023/12/28 11:44:55;;;;;;;6.85;4.65;;;9.40;99.90;;;;;;5017878;28;20048;-51
2023/12/28 11:47:24;;;;;;;6.38;4.15;;;9.50;99.90;;;;;;5015240;28;20116;-51
2023/12/28 11:49:52;;;;;;;12.55;4.47;;;9.40;99.90;;;;;;5014831;28;20196;-51
2023/12/28 11:52:30;;;;;;;7.25;4.00;;;9.40;99.90;;;;;;5015205;28;20041;-51
2023/12/28 11:54:59;;;;;;;9.05;4.30;;;9.50;99.90;;;;;;5013504;28;20037;-53
2023/12/28 11:57:27;;;;;;;7.68;4.35;;;9.40;99.90;;;;;;5010327;28;20589;-55
2023/12/28 11:59:58;;;;;;;7.93;4.13;;;9.40;99.90;;;;;;5018875;28;20493;-52
2023/12/28 12:02:26;;;;;;;7.10;4.30;;;9.30;99.90;;;;;;5005268;28;20045;-50
2023/12/28 12:05:01;;;;;;;7.80;4.45;;;9.30;99.90;;;;;;5012806;28;20104;-50
2023/12/28 12:07:29;;;;;;;6.32;4.38;;;9.40;99.90;;;;;;5011805;28;20058;-54
2023/12/28 12:09:58;;;;;;;8.55;4.70;;;9.30;99.90;;;;;;5014847;28;20052;-51
2023/12/28 12:12:26;;;;;;;7.97;5.05;;;9.30;99.90;;;;;;5008378;28;20048;-52
2023/12/28 12:14:56;;;;;;;9.95;5.10;;;9.30;99.90;;;;;;5011615;28;20041;-52
2023/12/28 12:17:24;;;;;;;7.25;4.88;;;9.30;99.90;;;;;;5011205;28;21068;-51
2023/12/28 12:19:55;;;;;;;7.22;4.88;;;9.30;99.90;;;;;;5012196;28;20045;-50
2023/12/28 12:22:22;;;;;;;11.18;5.43;;;9.30;99.90;;;;;;5011870;28;20045;-48
2023/12/28 12:24:56;;;;;;;10.93;5.40;;;9.40;99.90;;;;;;5010603;28;20050;-55
2023/12/28 12:27:23;;;;;;;11.88;5.93;;;9.40;99.90;;;;;;5006564;28;20117;-53
2023/12/28 12:29:49;;;;;;;8.27;4.85;;;9.30;99.90;;;;;;5008652;28;20506;-50
2023/12/28 12:32:17;;;;;;;9.63;5.13;;;9.30;99.90;;;;;;5009203;28;20045;-55
2023/12/28 12:34:44;;;;;;;10.77;5.25;;;9.30;99.90;;;;;;5011422;28;20119;-50
2023/12/28 12:37:11;;;;;;;11.13;5.78;;;9.40;99.90;;;;;;5009775;28;20618;-51
2023/12/28 12:39:38;;;;;;;9.40;5.45;;;9.40;99.90;;;;;;5002993;28;20073;-55
2023/12/28 12:42:06;;;;;;;9.73;5.75;;;9.40;99.90;;;;;;5010863;28;20537;-55
2023/12/28 12:44:34;;;;;;;8.10;5.30;;;9.30;99.90;;;;;;5017798;28;20265;-50
2023/12/28 12:47:02;;;;;;;11.40;5.30;;;9.30;99.90;;;;;;5009803;28;20042;-49
2023/12/28 12:49:29;;;;;;;9.68;5.32;;;9.30;99.90;;;;;;5006345;28;20061;-51
2023/12/28 12:51:57;;;;;;;8.60;4.72;;;9.30;99.90;;;;;;5009016;28;20040;-51
2023/12/28 12:54:26;;;;;;;19.83;5.63;;;9.30;99.90;;;;;;5006753;28;20526;-50
2023/12/28 12:56:54;;;;;;;13.63;5.57;;;9.30;99.90;;;;;;5019858;28;20045;-51
2023/12/28 12:59:22;;;;;;;8.65;4.88;;;9.30;99.90;;;;;;5006734;28;20052;-53
2023/12/28 13:01:48;;;;;;;10.40;5.72;;;9.30;99.90;;;;;;5011826;28;20041;-54